Time;durP1;ratioP1;P1;durP2;ratioP2;P2;SDS_P1;SDS_P2;PMS_P1;PMS_P2;Temp;Humidity;BMP_temperature;BMP_pressure;BME280_temperature;BME280_humidity;BME280_pressure;Samples;Min_cycle;Max_cycle;Signal;HPM_P1;HPM_P2
2021/01/06 00:01:30;;;;;;;32.87;11.87;;;;;;;0.05;86.47;98484.73;120407;1144;65146;-87
2021/01/06 00:03:57;;;;;;;26.00;12.83;;;;;;;0.05;86.40;98492.60;119816;1144;65375;-89
2021/01/06 00:06:28;;;;;;;25.55;12.50;;;;;;;0.04;86.49;98493.52;119858;1145;65073;-90
2021/01/06 00:08:55;;;;;;;38.37;15.40;;;;;;;0.03;86.52;98498.84;120169;1144;65582;-87
2021/01/06 00:11:36;;;;;;;23.37;10.17;;;;;;;0.04;86.80;98504.02;119849;1144;65164;-89
2021/01/06 00:14:06;;;;;;;26.53;11.50;;;;;;;0.04;87.09;98504.02;119926;1144;65098;-87
2021/01/06 00:16:33;;;;;;;23.90;10.67;;;;;;;0.05;86.92;98513.61;119939;1144;65213;-89
2021/01/06 00:18:59;;;;;;;26.60;10.47;;;;;;;0.06;86.51;98506.58;120237;1145;65155;-87
2021/01/06 00:21:26;;;;;;;15.47;6.97;;;;;;;0.07;86.91;98505.70;120014;1145;65095;-90
2021/01/06 00:23:52;;;;;;;50.73;19.87;;;;;;;0.08;86.54;98505.63;120027;1144;65187;-86
2021/01/06 00:26:19;;;;;;;21.30;9.20;;;;;;;0.11;86.63;98512.52;120011;1144;65001;-90
2021/01/06 00:28:45;;;;;;;33.95;12.65;;;;;;;0.08;86.28;98510.02;119904;1144;65068;-89
2021/01/06 00:31:12;;;;;;;29.12;11.97;;;;;;;0.07;86.89;98513.57;120201;1144;65111;-88
2021/01/06 00:33:38;;;;;;;25.83;10.73;;;;;;;0.06;86.50;98514.45;119894;1145;65114;-89
2021/01/06 00:36:09;;;;;;;85.40;25.20;;;;;;;0.05;86.38;98518.86;119908;1144;65150;-90
2021/01/06 00:38:38;;;;;;;42.90;15.15;;;;;;;0.04;87.18;98514.52;119877;1144;65092;-92
2021/01/06 00:41:06;;;;;;;63.73;21.87;;;;;;;0.05;86.40;98516.23;120232;1144;65240;-91
2021/01/06 00:43:32;;;;;;;14.37;7.67;;;;;;;0.06;86.91;98527.58;119869;1144;65181;-89
2021/01/06 00:45:59;;;;;;;20.47;10.63;;;;;;;0.08;86.68;98520.53;119855;1144;65144;-90
2021/01/06 00:48:26;;;;;;;10.75;6.60;;;;;;;0.10;86.93;98521.31;119916;1144;65186;-91
2021/01/06 00:50:55;;;;;;;9.85;6.20;;;;;;;0.11;86.88;98525.64;120239;1144;65114;-90
2021/01/06 00:53:25;;;;;;;11.60;7.20;;;;;;;0.09;87.08;98516.98;119848;1145;65299;-91
2021/01/06 00:55:54;;;;;;;18.07;9.10;;;;;;;0.08;86.86;98518.75;119986;1144;65631;-88
2021/01/06 00:58:22;;;;;;;19.73;8.20;;;;;;;0.11;86.38;98525.64;120191;1145;65107;-89
2021/01/06 01:00:49;;;;;;;26.13;14.47;;;;;;;0.12;86.47;98512.45;119860;1144;65204;-87
2021/01/06 01:03:16;;;;;;;21.60;8.87;;;;;;;0.12;86.77;98515.08;119884;1144;65098;-87
2021/01/06 01:05:45;;;;;;;29.70;14.77;;;;;;;0.14;86.88;98513.27;119898;1144;65238;-88
2021/01/06 01:08:13;;;;;;;21.60;10.07;;;;;;;0.16;86.78;98510.58;119851;1144;65165;-89
2021/01/06 01:10:48;;;;;;;17.85;10.15;;;;;;;0.18;86.39;98511.36;120199;1144;65210;-89
2021/01/06 01:13:24;;;;;;;14.47;8.47;;;;;;;0.17;86.62;98507.03;119927;1144;65101;-87
2021/01/06 01:15:56;;;;;;;13.20;8.13;;;;;;;0.14;86.70;98500.14;119769;1145;65188;-92
2021/01/06 01:18:26;;;;;;;15.17;8.70;;;;;;;0.10;86.89;98498.53;119929;1145;65149;-89
2021/01/06 01:20:58;;;;;;;12.90;7.65;;;;;;;0.07;86.32;98492.56;120180;1144;65118;-91
2021/01/06 01:23:27;;;;;;;12.23;7.87;;;;;;;0.03;87.04;98490.97;119909;1144;65191;-88
2021/01/06 01:25:54;;;;;;;13.33;8.43;;;;;;;-0.02;86.81;98493.76;119911;1144;65098;-91
2021/01/06 01:28:22;;;;;;;12.00;6.50;;;;;;;-0.04;86.83;98493.82;120013;1144;65102;-89
2021/01/06 01:30:50;;;;;;;11.13;4.90;;;;;;;-0.05;86.19;98501.77;120553;1144;65053;-88
2021/01/06 01:33:18;;;;;;;10.23;6.07;;;;;;;-0.05;87.17;98488.64;119911;1145;65127;-90
2021/01/06 01:35:45;;;;;;;9.35;5.90;;;;;;;-0.10;86.63;98480.08;119883;1144;65187;-89
2021/01/06 01:38:18;;;;;;;11.00;6.35;;;;;;;-0.13;86.48;98485.43;119834;1144;65165;-89
2021/01/06 01:40:45;;;;;;;12.83;6.00;;;;;;;-0.15;86.97;98487.27;119902;1144;65097;-90
2021/01/06 01:43:21;;;;;;;10.63;5.73;;;;;;;-0.17;86.88;98489.11;120097;1143;65210;-85
2021/01/06 01:45:48;;;;;;;13.70;6.00;;;;;;;-0.20;86.29;98483.95;119996;1144;65288;-88
2021/01/06 01:48:21;;;;;;;10.05;5.70;;;;;;;-0.22;87.07;98491.04;119924;1144;65056;-91
2021/01/06 01:50:48;;;;;;;10.50;6.40;;;;;;;-0.22;86.51;98480.55;119949;1144;65532;-88
2021/01/06 01:53:30;;;;;;;12.63;6.27;;;;;;;-0.23;86.32;98473.59;119809;1145;65588;-89
2021/01/06 01:55:59;;;;;;;11.80;5.80;;;;;;;-0.22;87.18;98475.30;119926;1144;65233;-88
2021/01/06 01:58:29;;;;;;;10.17;5.40;;;;;;;-0.23;87.01;98478.84;119754;1145;65044;-91
2021/01/06 02:00:56;;;;;;;12.07;6.00;;;;;;;-0.22;86.48;98476.15;120290;1144;65008;-90
2021/01/06 02:03:33;;;;;;;32.03;10.40;;;;;;;-0.20;86.55;98478.70;120014;1145;65191;-91
2021/01/06 02:06:08;;;;;;;45.63;15.90;;;;;;;-0.18;86.71;98469.03;119950;1145;65129;-91
2021/01/06 02:08:36;;;;;;;;;;;;;;;-0.16;86.85;98464.56;119976;1144;65125;-91
2021/01/06 02:11:10;;;;;;;53.17;12.80;;;;;;;-0.15;86.54;98471.52;119861;1144;65104;-90
2021/01/06 02:13:42;;;;;;;14.90;7.10;;;;;;;-0.17;86.50;98460.23;120131;1144;65188;-89
2021/01/06 02:16:38;;;;;;;11.63;5.67;;;;;;;-0.20;86.31;98460.34;120038;1144;65072;-89
2021/01/06 02:19:05;;;;;;;11.63;5.53;;;;;;;-0.21;86.73;98463.88;119865;1144;65143;-87
2021/01/06 02:21:34;;;;;;;15.47;7.87;;;;;;;-0.20;86.34;98458.56;119871;1145;65258;-88
2021/01/06 02:24:01;;;;;;;12.37;6.57;;;;;;;-0.16;86.27;98454.07;120093;1144;65099;-90
2021/01/06 02:26:29;;;;;;;10.53;5.13;;;;;;;-0.14;86.29;98455.70;120224;1145;65169;-88
2021/01/06 02:28:57;;;;;;;8.43;5.27;;;;;;;-0.12;86.58;98460.92;119874;1143;65481;-88
2021/01/06 02:31:24;;;;;;;12.67;5.57;;;;;;;-0.13;86.48;98454.79;120269;1144;64954;-89
2021/01/06 02:33:52;;;;;;;11.00;6.43;;;;;;;-0.13;86.65;98461.81;119835;1145;65175;-90
2021/01/06 02:36:20;;;;;;;10.87;5.67;;;;;;;-0.11;86.89;98467.88;119882;1144;65203;-90
2021/01/06 02:38:47;;;;;;;10.03;5.70;;;;;;;-0.11;86.62;98467.88;119840;1144;65187;-89
2021/01/06 02:41:15;;;;;;;10.67;5.90;;;;;;;-0.08;86.59;98465.12;119943;1144;65164;-90
2021/01/06 02:43:43;;;;;;;9.93;5.90;;;;;;;-0.07;86.73;98470.30;119961;1144;65162;-90
2021/01/06 02:46:11;;;;;;;7.50;4.97;;;;;;;-0.05;85.80;98470.27;119871;1145;65052;-90
2021/01/06 02:48:39;;;;;;;9.63;6.20;;;;;;;-0.07;86.45;98466.83;119855;1144;65057;-89
2021/01/06 02:51:15;;;;;;;8.53;5.83;;;;;;;-0.07;86.47;98469.45;119864;1145;65132;-91
2021/01/06 02:53:54;;;;;;;11.50;6.05;;;;;;;-0.08;86.14;98471.22;119835;1145;65178;-89
2021/01/06 02:56:21;;;;;;;12.03;5.63;;;;;;;-0.10;86.28;98469.58;120123;1142;65023;-90
2021/01/06 02:58:50;;;;;;;10.30;5.90;;;;;;;-0.12;85.91;98464.40;119847;1144;65197;-89
2021/01/06 03:01:22;;;;;;;11.25;5.70;;;;;;;-0.12;86.24;98460.92;119899;1144;65104;-89
2021/01/06 03:03:50;;;;;;;8.10;4.60;;;;;;;-0.11;86.37;98468.73;120227;1145;65052;-88
2021/01/06 03:06:25;;;;;;;9.47;5.43;;;;;;;-0.09;85.77;98463.41;119916;1145;65181;-90
2021/01/06 03:08:51;;;;;;;4.75;3.60;;;;;;;-0.09;86.02;98466.89;119998;1144;65088;-88
2021/01/06 03:11:18;;;;;;;9.23;5.73;;;;;;;-0.08;86.30;98467.74;119840;1145;65088;-87
2021/01/06 03:13:44;;;;;;;9.35;5.50;;;;;;;-0.07;86.86;98464.20;120092;1145;65102;-92
2021/01/06 03:16:11;;;;;;;8.30;4.83;;;;;;;-0.05;86.02;98462.39;120303;1144;65198;-88
2021/01/06 03:18:38;;;;;;;6.10;4.58;;;;;;;-0.04;86.70;98464.09;119819;1144;65167;-88
2021/01/06 03:21:08;;;;;;;7.80;4.20;;;;;;;-0.03;86.17;98456.16;119806;1144;65082;-90
2021/01/06 03:23:42;;;;;;;6.33;4.83;;;;;;;-0.03;86.65;98464.03;119880;1144;65286;-90
2021/01/06 03:26:14;;;;;;;8.85;5.47;;;;;;;-0.04;86.31;98464.95;120248;1144;65146;-89
2021/01/06 03:28:41;;;;;;;10.90;6.20;;;;;;;-0.08;85.83;98455.47;119842;1144;65476;-87
2021/01/06 03:31:14;;;;;;;7.13;5.57;;;;;;;-0.11;86.78;98458.23;119914;1145;65098;-89
2021/01/06 03:33:53;;;;;;;8.90;5.40;;;;;;;-0.13;86.55;98444.29;120093;1145;64980;-90
2021/01/06 03:36:25;;;;;;;10.03;5.20;;;;;;;-0.16;86.12;98444.42;119883;1144;65698;-90
2021/01/06 03:39:02;;;;;;;8.50;5.43;;;;;;;-0.20;86.60;98441.97;119890;1145;65108;-89
2021/01/06 03:41:31;;;;;;;5.87;3.97;;;;;;;-0.28;86.23;98437.87;119835;1145;65219;-90
2021/01/06 03:44:06;;;;;;;7.47;4.17;;;;;;;-0.38;85.92;98438.27;120187;1144;65181;-88
2021/01/06 03:46:59;;;;;;;;;;;;;;;-0.49;86.31;98435.22;119957;1145;65075;-90
2021/01/06 03:49:25;;;;;;;8.07;4.43;;;;;;;-0.64;85.79;98426.98;119852;1144;65239;-90
2021/01/06 03:52:12;;;;;;;5.83;3.97;;;;;;;-0.70;86.04;98423.73;119977;1144;66343;-88
2021/01/06 03:54:58;;;;;;;6.43;3.60;;;;;;;-0.76;86.71;98426.58;119945;1144;65178;-88
2021/01/06 03:57:27;;;;;;;7.23;4.23;;;;;;;-0.78;86.80;98423.17;120073;1144;65124;-90
2021/01/06 03:59:55;;;;;;;7.73;4.00;;;;;;;-0.84;87.09;98419.86;119871;1144;65169;-89
2021/01/06 04:02:36;;;;;;;13.85;5.85;;;;;;;-0.86;86.75;98421.69;120135;1145;65238;-89
2021/01/06 04:05:22;;;;;;;7.37;4.17;;;;;;;-0.91;86.66;98428.85;119787;1144;65047;-89
2021/01/06 04:07:51;;;;;;;6.53;3.60;;;;;;;-0.93;86.71;98430.69;119823;1145;65068;-87
2021/01/06 04:10:31;;;;;;;7.00;3.87;;;;;;;-0.94;87.20;98425.50;119903;1144;65105;-88
2021/01/06 04:12:58;;;;;;;6.00;4.63;;;;;;;-0.97;87.02;98434.31;120204;1144;65130;-88
2021/01/06 04:15:25;;;;;;;8.73;4.97;;;;;;;-1.02;86.50;98420.52;119837;1144;65172;-90
2021/01/06 04:17:54;;;;;;;10.23;5.70;;;;;;;-1.02;86.79;98430.14;119876;1145;65201;-90
2021/01/06 04:20:33;;;;;;;9.80;5.93;;;;;;;-1.08;87.05;98420.76;119870;1145;65104;-89
2021/01/06 04:23:03;;;;;;;9.37;6.13;;;;;;;-1.11;86.59;98420.85;119899;1145;65129;-88
2021/01/06 04:25:36;;;;;;;9.03;5.43;;;;;;;-1.14;86.73;98426.22;119843;1144;65083;-89
2021/01/06 04:28:18;;;;;;;7.50;5.35;;;;;;;-1.17;87.25;98426.30;120227;1144;65196;-88
2021/01/06 04:30:45;;;;;;;9.97;5.93;;;;;;;-1.23;87.17;98437.84;119837;1144;65162;-87
2021/01/06 04:33:14;;;;;;;9.53;6.10;;;;;;;-1.28;86.68;98441.53;120231;1144;65122;-88
2021/01/06 04:35:40;;;;;;;10.47;6.73;;;;;;;-1.36;86.72;98445.27;119875;1144;65098;-89
2021/01/06 04:38:07;;;;;;;23.85;8.65;;;;;;;-1.43;86.34;98441.15;119877;1144;65170;-88
2021/01/06 04:40:41;;;;;;;17.60;8.70;;;;;;;-1.51;85.94;98443.17;119881;1144;65161;-92
2021/01/06 04:43:14;;;;;;;22.00;11.63;;;;;;;-1.60;85.87;98446.08;120296;1144;65175;-88
2021/01/06 04:45:46;;;;;;;27.47;13.07;;;;;;;-1.68;85.98;98445.48;119857;1144;65200;-90
2021/01/06 04:48:19;;;;;;;22.70;11.53;;;;;;;-1.73;86.98;98450.86;119832;1145;65104;-89
2021/01/06 04:51:25;;;;;;;18.63;9.90;;;;;;;-1.75;86.36;98449.21;119868;1144;64999;-89
2021/01/06 04:54:06;;;;;;;20.10;10.15;;;;;;;-1.75;86.43;98449.21;119468;1148;65177;-87
2021/01/06 04:56:44;;;;;;;18.90;9.50;;;;;;;-1.77;86.51;98443.18;119317;1148;65217;-91
2021/01/06 04:59:47;;;;;;;19.30;10.20;;;;;;;-1.74;86.22;98456.16;119796;1147;65168;-87
2021/01/06 05:02:32;;;;;;;19.33;10.20;;;;;;;-1.68;85.86;98455.95;119446;1148;65020;-90
2021/01/06 05:05:24;;;;;;;19.87;10.25;;;;;;;-1.63;85.96;98448.81;119760;1147;65063;-87
2021/01/06 05:08:01;;;;;;;21.73;11.33;;;;;;;-1.54;86.49;98456.36;119793;1147;65239;-90
2021/01/06 05:10:30;;;;;;;21.90;10.67;;;;;;;-1.45;86.90;98447.36;119470;1148;65226;-88
2021/01/06 05:13:05;;;;;;;20.93;10.53;;;;;;;-1.38;87.19;98449.72;120064;1147;65267;-88
2021/01/06 05:15:39;;;;;;;19.15;10.25;;;;;;;-1.25;86.74;98447.53;119872;1147;65335;-87
2021/01/06 05:18:06;;;;;;;26.15;12.95;;;;;;;-1.20;87.35;98452.63;119469;1148;65067;-88
2021/01/06 05:20:33;;;;;;;23.47;11.60;;;;;;;-1.10;87.53;98452.23;119397;1147;65130;-88
2021/01/06 05:23:01;;;;;;;23.20;11.67;;;;;;;-0.99;86.61;98451.02;119813;1147;65183;-87
2021/01/06 05:25:29;;;;;;;20.25;10.20;;;;;;;-0.89;86.59;98450.64;119463;1148;65073;-87
2021/01/06 05:27:57;;;;;;;20.47;9.67;;;;;;;-0.86;86.61;98453.14;119380;1148;65152;-89
2021/01/06 05:30:32;;;;;;;24.23;10.30;;;;;;;-0.85;86.75;98454.84;119425;1148;65086;-89
2021/01/06 05:33:08;;;;;;;19.47;11.40;;;;;;;-0.88;86.29;98452.35;120209;1144;65117;-87
2021/01/06 05:35:44;;;;;;;24.07;12.23;;;;;;;-0.93;86.51;98449.03;119842;1144;65092;-89
2021/01/06 05:38:10;;;;;;;28.80;13.05;;;;;;;-0.97;85.91;98450.04;119833;1144;65156;-89
2021/01/06 05:40:41;;;;;;;21.00;11.40;;;;;;;-0.96;85.94;98450.89;119894;1144;65133;-88
2021/01/06 05:43:18;;;;;;;21.63;10.33;;;;;;;-0.92;86.82;98453.36;120099;1144;65101;-86
2021/01/06 05:45:52;;;;;;;20.70;9.87;;;;;;;-0.87;86.38;98451.44;119880;1145;65142;-91
2021/01/06 05:48:42;;;;;;;22.03;10.93;;;;;;;-0.83;86.48;98446.92;119882;1145;65019;-90
2021/01/06 05:51:17;;;;;;;26.77;11.73;;;;;;;-0.80;86.53;98444.20;119863;1144;65025;-87
2021/01/06 05:53:56;;;;;;;26.70;12.10;;;;;;;-0.77;86.69;98441.45;120148;1145;65107;-88
2021/01/06 05:56:35;;;;;;;39.90;18.23;;;;;;;-0.72;86.36;98443.92;119861;1144;65676;-89
2021/01/06 05:59:10;;;;;;;53.20;23.47;;;;;;;-0.69;86.73;98444.68;119844;1144;65130;-87
2021/01/06 06:02:22;;;;;;;51.07;23.10;;;;;;;-0.68;86.86;98456.88;120034;1144;65099;-88
2021/01/06 06:05:07;;;;;;;59.60;22.67;;;;;;;-0.67;87.05;98447.23;119726;1145;65115;-87
2021/01/06 06:08:08;;;;;;;47.98;18.23;;;;;;;-0.66;86.22;98452.42;119981;1144;65159;-87
2021/01/06 06:10:56;;;;;;;34.97;14.70;;;;;;;-0.64;86.89;98445.34;120137;1144;65057;-89
2021/01/06 06:13:41;;;;;;;41.00;16.93;;;;;;;-0.61;86.18;98449.64;119861;1144;65264;-89
2021/01/06 06:16:36;;;;;;;58.52;22.42;;;;;;;-0.60;86.71;98446.09;119896;1145;65105;-88
2021/01/06 06:19:40;;;;;;;48.25;18.65;;;;;;;-0.58;86.52;98441.64;119866;1144;65132;-89
2021/01/06 06:22:16;;;;;;;43.53;17.37;;;;;;;-0.55;86.00;98446.79;120120;1144;65091;-87
2021/01/06 06:24:55;;;;;;;42.80;15.43;;;;;;;-0.50;86.49;98446.63;119916;1144;65110;-89
2021/01/06 06:27:47;;;;;;;35.50;14.27;;;;;;;-0.44;86.83;98452.50;119812;1144;65246;-89
2021/01/06 06:30:38;;;;;;;36.60;17.07;;;;;;;-0.41;86.03;98448.89;119853;1146;65177;-86
2021/01/06 06:33:18;;;;;;;27.33;13.20;;;;;;;-0.37;85.98;98455.75;119773;1147;65005;-87
2021/01/06 06:35:50;;;;;;;21.60;10.37;;;;;;;-0.37;86.51;98453.98;119463;1148;65253;-89
2021/01/06 06:38:18;;;;;;;23.33;10.57;;;;;;;-0.36;86.59;98460.93;119453;1147;65085;-88
2021/01/06 06:40:51;;;;;;;23.00;11.43;;;;;;;-0.37;85.83;98463.62;119249;1148;65242;-86
2021/01/06 06:43:34;;;;;;;21.30;10.37;;;;;;;-0.37;85.92;98459.22;119834;1147;65270;-87
2021/01/06 06:46:28;;;;;;;25.77;9.93;;;;;;;-0.32;85.93;98459.91;119249;1148;65107;-89
2021/01/06 06:49:19;;;;;;;19.80;9.33;;;;;;;-0.25;86.53;98464.90;119616;1147;65133;-88
2021/01/06 06:52:07;;;;;;;19.75;10.20;;;;;;;-0.22;86.30;98467.42;119590;1147;65034;-90
2021/01/06 06:54:33;;;;;;;20.23;10.67;;;;;;;-0.21;86.57;98461.25;119423;1148;65248;-89
2021/01/06 06:57:12;;;;;;;24.93;12.20;;;;;;;-0.19;86.46;98464.66;120032;1147;65191;-88
2021/01/06 07:00:06;;;;;;;23.87;11.47;;;;;;;-0.14;86.47;98465.35;119438;1148;65117;-87
2021/01/06 07:02:52;;;;;;;69.53;26.87;;;;;;;-0.11;86.39;98468.73;120046;1147;65111;-87
2021/01/06 07:05:31;;;;;;;41.30;18.80;;;;;;;-0.04;86.34;98477.22;119689;1147;65200;-89
2021/01/06 07:08:07;;;;;;;38.43;15.90;;;;;;;0.03;86.16;98470.81;119689;1144;65130;-87
2021/01/06 07:10:41;;;;;;;24.80;12.50;;;;;;;0.07;86.78;98479.44;119892;1144;65089;-89
2021/01/06 07:13:16;;;;;;;36.20;16.05;;;;;;;0.13;86.43;98474.80;119846;1145;65105;-89
2021/01/06 07:15:50;;;;;;;33.80;16.60;;;;;;;0.20;86.62;98478.90;120108;1144;65047;-90
2021/01/06 07:18:47;;;;;;;28.07;15.03;;;;;;;0.28;86.84;98475.11;119914;1144;65079;-89
2021/01/06 07:21:21;;;;;;;79.95;23.35;;;;;;;0.30;86.28;98473.27;119987;1144;65050;-87
2021/01/06 07:24:10;;;;;;;62.97;20.53;;;;;;;0.31;86.84;98480.22;119880;1144;65139;-89
2021/01/06 07:26:46;;;;;;;64.40;21.03;;;;;;;0.38;86.70;98476.43;119861;1144;65178;-87
2021/01/06 07:29:14;;;;;;;61.70;19.60;;;;;;;0.48;86.79;98473.38;119894;1144;65070;-88
2021/01/06 07:31:57;;;;;;;63.20;21.90;;;;;;;0.54;86.29;98472.28;119902;1145;65114;-89
2021/01/06 07:34:37;;;;;;;92.80;24.80;;;;;;;0.55;85.98;98463.47;120159;1144;65309;-90
2021/01/06 07:37:20;;;;;;;78.53;23.53;;;;;;;0.48;85.80;98464.64;119830;1144;65105;-89
2021/01/06 07:39:55;;;;;;;75.33;22.37;;;;;;;0.43;86.21;98463.97;119820;1144;65102;-88
2021/01/06 07:42:35;;;;;;;68.28;23.18;;;;;;;0.46;86.24;98469.12;119847;1144;65102;-89
2021/01/06 07:45:20;;;;;;;49.15;18.50;;;;;;;0.51;86.46;98475.90;119880;1144;65682;-88
2021/01/06 07:47:51;;;;;;;;;;;;;;;0.62;86.47;98471.95;120423;1145;65095;-90
2021/01/06 07:50:23;;;;;;;69.00;28.60;;;;;;;0.69;86.18;98473.41;119876;1144;65114;-89
2021/01/06 07:52:58;;;;;;;84.17;37.57;;;;;;;0.76;86.67;98473.12;119958;1144;65095;-87
2021/01/06 07:55:40;;;;;;;72.37;33.93;;;;;;;0.80;86.36;98474.67;119834;1144;65112;-88
2021/01/06 07:58:37;;;;;;;61.05;27.30;;;;;;;0.83;85.55;98476.34;119989;1144;65102;-89
2021/01/06 08:01:09;;;;;;;111.33;49.00;;;;;;;0.91;85.87;98476.02;120002;1144;65212;-90
2021/01/06 08:03:38;;;;;;;90.80;42.05;;;;;;;0.98;85.41;98472.20;120164;1145;65177;-88
2021/01/06 08:06:05;;;;;;;163.50;59.77;;;;;;;1.02;85.24;98472.02;119952;1144;65079;-89
2021/01/06 08:08:45;;;;;;;208.07;70.23;;;;;;;1.07;85.42;98466.53;119859;1145;65076;-89
2021/01/06 08:11:14;;;;;;;241.47;82.20;;;;;;;1.10;85.28;98482.20;119932;1144;65216;-89
2021/01/06 08:13:46;;;;;;;192.80;66.67;;;;;;;1.11;85.29;98478.64;119899;1144;65271;-90
2021/01/06 08:16:29;;;;;;;157.63;53.17;;;;;;;1.14;85.66;98480.27;119973;1144;65079;-86
2021/01/06 08:19:11;;;;;;;67.33;26.80;;;;;;;1.20;85.53;98466.86;120285;1144;65147;-89
2021/01/06 08:22:01;;;;;;;45.20;20.80;;;;;;;1.24;85.69;98464.03;119906;1144;65169;-87
2021/01/06 08:24:31;;;;;;;41.97;18.40;;;;;;;1.34;85.49;98464.50;119805;1144;65075;-89
2021/01/06 08:27:01;;;;;;;37.13;17.03;;;;;;;1.44;85.53;98464.92;119847;1144;65111;-88
2021/01/06 08:29:35;;;;;;;53.77;21.87;;;;;;;1.48;85.15;98464.73;119979;1144;65193;-89
2021/01/06 08:32:04;;;;;;;76.65;28.98;;;;;;;1.57;85.22;98456.41;120071;1144;65161;-89
2021/01/06 08:34:30;;;;;;;81.73;33.90;;;;;;;1.63;85.15;98465.80;119903;1144;65115;-88
2021/01/06 08:37:01;;;;;;;60.93;28.17;;;;;;;1.65;85.02;98455.20;119868;1144;65078;-88
2021/01/06 08:39:31;;;;;;;72.87;33.40;;;;;;;1.68;85.34;98463.83;120112;1144;65124;-88
2021/01/06 08:42:09;;;;;;;51.60;23.60;;;;;;;1.70;84.79;98464.60;119881;1144;65111;-88
2021/01/06 08:44:56;;;;;;;44.53;21.00;;;;;;;1.70;84.85;98469.87;119870;1145;65187;-87
2021/01/06 08:47:38;;;;;;;43.20;21.63;;;;;;;1.79;85.29;98463.34;119868;1144;65100;-88
2021/01/06 08:50:16;;;;;;;35.47;19.73;;;;;;;1.86;85.17;98465.62;120042;1144;65136;-88
2021/01/06 08:52:56;;;;;;;43.70;22.40;;;;;;;1.95;85.22;98460.84;119839;1144;65184;-88
2021/01/06 08:55:26;;;;;;;43.90;22.57;;;;;;;2.02;85.12;98462.26;119974;1144;65106;-85
2021/01/06 08:57:58;;;;;;;54.40;28.20;;;;;;;2.06;84.91;98463.84;120247;1144;65060;-85
2021/01/06 09:00:29;;;;;;;63.63;29.27;;;;;;;2.04;85.14;98457.80;119925;1144;65034;-87
2021/01/06 09:03:09;;;;;;;82.70;38.93;;;;;;;2.07;84.89;98460.27;119884;1145;65194;-86
2021/01/06 09:05:49;;;;;;;76.33;37.43;;;;;;;2.08;85.12;98459.34;119909;1144;65091;-87
2021/01/06 09:08:21;;;;;;;68.00;34.77;;;;;;;2.11;84.87;98467.11;120126;1144;65114;-86
2021/01/06 09:11:20;;;;;;;57.70;27.77;;;;;;;2.21;85.05;98464.88;120294;1144;65107;-85
2021/01/06 09:13:50;;;;;;;42.60;22.60;;;;;;;2.27;84.61;98462.80;119858;1144;65136;-86
2021/01/06 09:16:23;;;;;;;45.03;24.00;;;;;;;2.26;84.51;98466.38;119891;1144;65095;-84
2021/01/06 09:18:59;;;;;;;71.50;34.67;;;;;;;2.34;84.69;98469.48;120092;1144;65094;-83
2021/01/06 09:21:31;;;;;;;56.13;24.70;;;;;;;2.46;84.67;98462.77;119880;1144;65002;-86
2021/01/06 09:24:22;;;;;;;50.27;25.57;;;;;;;2.52;84.69;98464.25;119822;1144;65173;-87
2021/01/06 09:26:57;;;;;;;47.00;24.20;;;;;;;2.57;84.68;98467.53;119818;1144;65024;-86
2021/01/06 09:29:26;;;;;;;53.67;26.63;;;;;;;2.57;84.65;98471.02;119974;1144;65185;-87
2021/01/06 09:31:57;;;;;;;50.73;26.90;;;;;;;2.66;84.86;98467.91;120037;1144;65082;-85
2021/01/06 09:34:31;;;;;;;59.97;27.67;;;;;;;2.70;84.47;98471.27;119770;1145;65108;-86
2021/01/06 09:36:59;;;;;;;55.83;29.37;;;;;;;2.71;85.16;98475.59;119830;1144;65135;-87
2021/01/06 09:39:29;;;;;;;52.50;28.55;;;;;;;2.59;84.55;98470.93;119757;1144;65104;-87
2021/01/06 09:41:58;;;;;;;60.87;31.00;;;;;;;2.45;84.41;98468.97;119838;1145;65124;-86
2021/01/06 09:44:25;;;;;;;54.87;29.60;;;;;;;2.41;84.92;98470.04;119911;1144;65083;-85
2021/01/06 09:47:22;;;;;;;54.90;28.15;;;;;;;2.44;84.68;98462.85;119816;1145;65079;-85
2021/01/06 09:49:55;;;;;;;59.17;27.30;;;;;;;2.42;84.55;98456.81;119900;1145;65075;-86
2021/01/06 09:52:34;;;;;;;59.43;28.03;;;;;;;2.35;84.80;98451.89;119909;1144;65120;-86
2021/01/06 09:55:02;;;;;;;58.75;28.40;;;;;;;2.31;84.99;98439.81;119845;1145;65181;-84
2021/01/06 09:57:29;;;;;;;69.13;30.40;;;;;;;2.25;85.08;98448.86;119935;1145;65158;-86
2021/01/06 10:00:06;;;;;;;69.60;31.93;;;;;;;2.10;84.64;98453.09;119861;1145;65086;-88
2021/01/06 10:02:35;;;;;;;65.10;32.47;;;;;;;1.93;84.76;98452.17;119836;1144;65110;-84
2021/01/06 10:05:27;;;;;;;50.83;26.53;;;;;;;1.77;84.92;98452.02;119861;1144;65078;-85
2021/01/06 10:08:06;;;;;;;46.90;22.47;;;;;;;1.68;85.13;98445.41;119852;1144;65104;-88
2021/01/06 10:10:36;;;;;;;54.17;25.77;;;;;;;1.73;85.52;98445.20;119809;1145;65133;-85
2021/01/06 10:13:22;;;;;;;35.73;21.00;;;;;;;1.84;86.01;98451.65;119837;1145;65102;-85
2021/01/06 10:15:51;;;;;;;;;;;;;;;1.94;86.09;98449.45;120470;1145;65011;-81
2021/01/06 10:18:33;;;;;;;61.30;32.13;;;;;;;2.00;86.34;98443.91;120838;1145;65079;-87
2021/01/06 10:21:01;;;;;;;57.67;29.73;;;;;;;2.17;86.62;98443.11;119756;1145;65135;-84
2021/01/06 10:23:37;;;;;;;49.30;23.00;;;;;;;2.19;86.25;98443.03;119778;1144;65216;-85
2021/01/06 10:26:36;;;;;;;50.63;20.23;;;;;;;2.19;85.71;98443.88;119784;1145;65193;-86
2021/01/06 10:29:14;;;;;;;49.60;24.47;;;;;;;2.11;85.37;98441.62;119802;1145;65092;-84
2021/01/06 10:32:21;;;;;;;43.77;20.57;;;;;;;2.08;85.65;98441.75;119850;1144;65102;-86
2021/01/06 10:34:51;;;;;;;54.80;24.80;;;;;;;2.14;85.87;98432.70;120170;1144;65161;-89
2021/01/06 10:37:29;;;;;;;55.33;29.17;;;;;;;2.23;85.72;98424.38;119853;1145;65261;-85
2021/01/06 10:40:14;;;;;;;39.90;21.53;;;;;;;2.31;85.54;98427.48;119857;1144;65140;-83
2021/01/06 10:42:41;;;;;;;32.33;16.27;;;;;;;2.38;85.99;98426.26;119863;1145;65246;-86
2021/01/06 10:45:31;;;;;;;31.60;18.15;;;;;;;2.44;85.59;98425.95;119806;1144;65104;-84
2021/01/06 10:47:57;;;;;;;45.00;21.33;;;;;;;2.51;85.35;98417.75;119811;1144;65135;-83
2021/01/06 10:50:25;;;;;;;36.27;19.90;;;;;;;2.52;85.17;98419.45;119758;1145;65148;-83
2021/01/06 10:53:06;;;;;;;40.07;19.80;;;;;;;2.61;85.69;98417.22;119869;1144;65100;-84
2021/01/06 10:55:42;;;;;;;43.20;23.73;;;;;;;2.74;85.10;98421.88;119819;1144;65114;-82
2021/01/06 10:58:08;;;;;;;38.40;20.40;;;;;;;2.80;85.32;98408.36;120144;1144;65105;-86
2021/01/06 11:00:51;;;;;;;36.07;19.70;;;;;;;2.88;84.93;98406.20;119945;1145;65193;-83
2021/01/06 11:03:50;;;;;;;28.83;15.90;;;;;;;2.97;84.82;98408.36;119984;1145;65159;-83
2021/01/06 11:06:29;;;;;;;34.20;17.10;;;;;;;3.11;85.06;98405.84;120332;1144;65121;-84
2021/01/06 11:09:19;;;;;;;34.10;17.97;;;;;;;3.25;84.70;98405.16;120141;1144;65186;-82
2021/01/06 11:12:04;;;;;;;38.77;20.43;;;;;;;3.53;84.98;98408.01;119783;1144;65149;-84
2021/01/06 11:14:49;;;;;;;41.30;23.27;;;;;;;3.78;84.97;98401.40;120454;1144;66353;-81
2021/01/06 11:17:18;;;;;;;38.53;20.37;;;;;;;3.98;84.76;98406.42;120145;1145;65137;-82
2021/01/06 11:20:01;;;;;;;34.27;20.10;;;;;;;4.11;84.82;98401.30;120367;1144;65083;-83
2021/01/06 11:22:38;;;;;;;31.63;19.33;;;;;;;4.18;84.31;98412.38;120467;1144;65072;-83
2021/01/06 11:25:32;;;;;;;29.43;17.40;;;;;;;4.23;84.96;98407.70;120124;1144;65098;-81
2021/01/06 11:27:59;;;;;;;31.10;17.30;;;;;;;4.31;85.15;98405.45;120546;1144;65159;-83
2021/01/06 11:30:30;;;;;;;38.00;19.63;;;;;;;4.26;83.68;98396.93;120231;1145;65257;-81
2021/01/06 11:33:15;;;;;;;34.87;17.73;;;;;;;4.10;84.10;98398.76;119967;1144;65166;-85
2021/01/06 11:35:44;;;;;;;29.37;14.70;;;;;;;4.12;84.38;98397.72;120257;1144;65099;-81
2021/01/06 11:38:39;;;;;;;41.27;21.20;;;;;;;4.11;84.63;98396.02;120713;1144;65130;-82
2021/01/06 11:41:09;;;;;;;32.87;18.90;;;;;;;4.03;84.21;98387.69;120058;1144;65099;-85
2021/01/06 11:44:14;;;;;;;49.47;29.37;;;;;;;3.98;84.24;98393.22;120400;1144;65191;-83
2021/01/06 11:46:51;;;;;;;143.40;64.70;;;;;;;3.96;84.00;98392.46;119992;1144;65105;-82
2021/01/06 11:49:29;;;;;;;115.30;50.87;;;;;;;3.89;84.20;98387.61;120873;1144;65108;-84
2021/01/06 11:52:28;;;;;;;77.97;33.80;;;;;;;3.83;83.93;98386.16;119828;1144;65111;-86
2021/01/06 11:54:57;;;;;;;62.80;27.33;;;;;;;3.95;84.49;98384.63;119767;1147;65108;-84